sensor_id;sensor_type;location;lat;lon;timestamp;P1;durP1;ratioP1;P2;durP2;ratioP2
10715;SDS011;5409;42.620;23.316;2022-12-18T00:00:43;6.95;;;3.25;;
10715;SDS011;5409;42.620;23.316;2022-12-18T00:03:12;4.75;;;3.70;;
10715;SDS011;5409;42.620;23.316;2022-12-18T00:05:45;4.55;;;3.13;;
10715;SDS011;5409;42.620;23.316;2022-12-18T00:08:12;4.82;;;3.05;;
10715;SDS011;5409;42.620;23.316;2022-12-18T00:10:39;5.88;;;3.55;;
10715;SDS011;5409;42.620;23.316;2022-12-18T00:13:07;5.22;;;4.68;;
10715;SDS011;5409;42.620;23.316;2022-12-18T00:15:35;6.45;;;4.70;;
10715;SDS011;5409;42.620;23.316;2022-12-18T00:18:02;6.05;;;4.70;;
10715;SDS011;5409;42.620;23.316;2022-12-18T00:20:29;5.10;;;4.60;;
10715;SDS011;5409;42.620;23.316;2022-12-18T00:22:56;4.35;;;3.92;;
10715;SDS011;5409;42.620;23.316;2022-12-18T00:25:23;7.60;;;4.57;;
10715;SDS011;5409;42.620;23.316;2022-12-18T00:27:49;5.60;;;4.38;;
10715;SDS011;5409;42.620;23.316;2022-12-18T00:30:16;5.35;;;4.05;;
10715;SDS011;5409;42.620;23.316;2022-12-18T00:32:44;6.90;;;4.70;;
10715;SDS011;5409;42.620;23.316;2022-12-18T00:35:11;5.60;;;4.65;;
10715;SDS011;5409;42.620;23.316;2022-12-18T00:37:38;6.18;;;4.93;;
10715;SDS011;5409;42.620;23.316;2022-12-18T00:40:05;5.82;;;5.03;;
10715;SDS011;5409;42.620;23.316;2022-12-18T00:42:33;6.82;;;4.43;;
10715;SDS011;5409;42.620;23.316;2022-12-18T00:45:17;5.47;;;4.22;;
10715;SDS011;5409;42.620;23.316;2022-12-18T00:47:45;4.80;;;3.97;;
10715;SDS011;5409;42.620;23.316;2022-12-18T00:50:11;5.97;;;4.22;;
10715;SDS011;5409;42.620;23.316;2022-12-18T00:52:38;6.82;;;5.32;;
10715;SDS011;5409;42.620;23.316;2022-12-18T00:55:05;8.82;;;6.20;;
10715;SDS011;5409;42.620;23.316;2022-12-18T00:57:33;6.20;;;4.90;;
10715;SDS011;5409;42.620;23.316;2022-12-18T00:59:59;5.57;;;4.53;;
10715;SDS011;5409;42.620;23.316;2022-12-18T01:02:26;7.93;;;5.50;;
10715;SDS011;5409;42.620;23.316;2022-12-18T01:04:54;5.10;;;4.40;;
10715;SDS011;5409;42.620;23.316;2022-12-18T01:07:21;4.43;;;4.03;;
10715;SDS011;5409;42.620;23.316;2022-12-18T01:09:48;5.97;;;4.40;;
10715;SDS011;5409;42.620;23.316;2022-12-18T01:12:15;5.70;;;4.53;;
10715;SDS011;5409;42.620;23.316;2022-12-18T01:14:42;6.45;;;5.10;;
10715;SDS011;5409;42.620;23.316;2022-12-18T01:17:08;7.45;;;5.40;;
10715;SDS011;5409;42.620;23.316;2022-12-18T01:19:35;7.07;;;5.88;;
10715;SDS011;5409;42.620;23.316;2022-12-18T01:22:03;5.50;;;4.80;;
10715;SDS011;5409;42.620;23.316;2022-12-18T01:24:30;7.85;;;6.28;;
10715;SDS011;5409;42.620;23.316;2022-12-18T01:26:57;9.23;;;5.80;;
10715;SDS011;5409;42.620;23.316;2022-12-18T01:29:23;7.28;;;5.47;;
10715;SDS011;5409;42.620;23.316;2022-12-18T01:31:50;7.32;;;5.32;;
10715;SDS011;5409;42.620;23.316;2022-12-18T01:34:17;7.97;;;5.93;;
10715;SDS011;5409;42.620;23.316;2022-12-18T01:36:44;8.10;;;5.65;;
10715;SDS011;5409;42.620;23.316;2022-12-18T01:39:13;7.90;;;5.70;;
10715;SDS011;5409;42.620;23.316;2022-12-18T01:41:41;8.35;;;6.22;;
10715;SDS011;5409;42.620;23.316;2022-12-18T01:47:25;7.70;;;5.65;;
10715;SDS011;5409;42.620;23.316;2022-12-18T01:49:55;8.35;;;6.13;;
10715;SDS011;5409;42.620;23.316;2022-12-18T01:52:23;6.93;;;5.78;;
10715;SDS011;5409;42.620;23.316;2022-12-18T01:54:53;7.15;;;5.80;;
10715;SDS011;5409;42.620;23.316;2022-12-18T01:57:21;7.50;;;6.03;;
10715;SDS011;5409;42.620;23.316;2022-12-18T01:59:50;6.90;;;5.32;;
10715;SDS011;5409;42.620;23.316;2022-12-18T02:02:20;8.45;;;5.78;;
10715;SDS011;5409;42.620;23.316;2022-12-18T02:04:47;8.85;;;6.53;;
10715;SDS011;5409;42.620;23.316;2022-12-18T02:07:15;7.57;;;6.38;;
10715;SDS011;5409;42.620;23.316;2022-12-18T02:09:49;10.73;;;6.10;;
10715;SDS011;5409;42.620;23.316;2022-12-18T02:12:20;10.55;;;7.07;;
10715;SDS011;5409;42.620;23.316;2022-12-18T02:14:50;11.02;;;6.97;;
10715;SDS011;5409;42.620;23.316;2022-12-18T02:17:25;13.52;;;9.13;;
10715;SDS011;5409;42.620;23.316;2022-12-18T02:20:01;10.13;;;6.88;;
10715;SDS011;5409;42.620;23.316;2022-12-18T02:22:37;9.75;;;7.40;;
10715;SDS011;5409;42.620;23.316;2022-12-18T02:25:20;9.68;;;7.97;;
10715;SDS011;5409;42.620;23.316;2022-12-18T02:27:57;12.07;;;8.27;;
10715;SDS011;5409;42.620;23.316;2022-12-18T02:30:29;10.65;;;7.32;;
10715;SDS011;5409;42.620;23.316;2022-12-18T02:33:00;11.05;;;7.47;;
10715;SDS011;5409;42.620;23.316;2022-12-18T02:35:30;11.00;;;8.15;;
10715;SDS011;5409;42.620;23.316;2022-12-18T02:37:58;9.13;;;6.78;;
10715;SDS011;5409;42.620;23.316;2022-12-18T02:40:26;9.60;;;6.50;;
10715;SDS011;5409;42.620;23.316;2022-12-18T02:42:54;11.40;;;7.10;;
10715;SDS011;5409;42.620;23.316;2022-12-18T02:45:22;9.48;;;6.85;;
10715;SDS011;5409;42.620;23.316;2022-12-18T02:47:49;10.20;;;6.10;;
10715;SDS011;5409;42.620;23.316;2022-12-18T02:50:18;10.23;;;6.55;;
10715;SDS011;5409;42.620;23.316;2022-12-18T02:52:51;10.80;;;6.95;;
10715;SDS011;5409;42.620;23.316;2022-12-18T02:55:28;8.32;;;5.85;;
10715;SDS011;5409;42.620;23.316;2022-12-18T02:58:08;9.88;;;6.38;;
10715;SDS011;5409;42.620;23.316;2022-12-18T03:00:46;8.75;;;6.25;;
10715;SDS011;5409;42.620;23.316;2022-12-18T03:03:18;8.90;;;6.60;;
10715;SDS011;5409;42.620;23.316;2022-12-18T03:05:56;9.35;;;6.03;;
10715;SDS011;5409;42.620;23.316;2022-12-18T03:08:28;6.95;;;5.22;;
10715;SDS011;5409;42.620;23.316;2022-12-18T03:11:00;8.77;;;6.72;;
10715;SDS011;5409;42.620;23.316;2022-12-18T03:13:30;7.80;;;5.55;;
10715;SDS011;5409;42.620;23.316;2022-12-18T03:16:02;8.10;;;6.35;;
10715;SDS011;5409;42.620;23.316;2022-12-18T03:18:33;10.57;;;6.20;;
10715;SDS011;5409;42.620;23.316;2022-12-18T03:21:05;9.48;;;6.80;;
10715;SDS011;5409;42.620;23.316;2022-12-18T03:23:33;9.70;;;6.55;;
10715;SDS011;5409;42.620;23.316;2022-12-18T03:26:07;8.82;;;6.28;;
10715;SDS011;5409;42.620;23.316;2022-12-18T03:28:37;12.55;;;6.95;;
10715;SDS011;5409;42.620;23.316;2022-12-18T03:31:07;8.57;;;5.88;;
10715;SDS011;5409;42.620;23.316;2022-12-18T03:33:38;11.57;;;6.97;;
10715;SDS011;5409;42.620;23.316;2022-12-18T03:36:10;9.85;;;6.60;;
10715;SDS011;5409;42.620;23.316;2022-12-18T03:38:37;10.38;;;6.32;;
10715;SDS011;5409;42.620;23.316;2022-12-18T03:41:06;7.07;;;5.72;;
10715;SDS011;5409;42.620;23.316;2022-12-18T03:43:41;9.45;;;6.28;;
10715;SDS011;5409;42.620;23.316;2022-12-18T03:46:17;8.63;;;6.32;;
10715;SDS011;5409;42.620;23.316;2022-12-18T03:48:54;8.23;;;5.75;;
10715;SDS011;5409;42.620;23.316;2022-12-18T03:51:27;6.07;;;5.15;;
10715;SDS011;5409;42.620;23.316;2022-12-18T03:54:00;7.10;;;4.30;;
10715;SDS011;5409;42.620;23.316;2022-12-18T03:56:31;5.93;;;4.13;;
10715;SDS011;5409;42.620;23.316;2022-12-18T03:59:02;5.97;;;4.85;;
10715;SDS011;5409;42.620;23.316;2022-12-18T04:01:33;10.30;;;4.10;;
10715;SDS011;5409;42.620;23.316;2022-12-18T04:04:04;5.40;;;3.58;;
10715;SDS011;5409;42.620;23.316;2022-12-18T04:06:32;5.88;;;3.72;;
10715;SDS011;5409;42.620;23.316;2022-12-18T04:09:00;8.38;;;4.07;;
10715;SDS011;5409;42.620;23.316;2022-12-18T04:11:27;6.63;;;4.57;;
10715;SDS011;5409;42.620;23.316;2022-12-18T04:13:55;6.68;;;4.10;;
10715;SDS011;5409;42.620;23.316;2022-12-18T04:16:23;6.90;;;4.22;;
10715;SDS011;5409;42.620;23.316;2022-12-18T04:18:51;5.07;;;3.63;;
10715;SDS011;5409;42.620;23.316;2022-12-18T04:21:19;3.53;;;3.10;;
10715;SDS011;5409;42.620;23.316;2022-12-18T04:23:46;5.00;;;3.55;;
10715;SDS011;5409;42.620;23.316;2022-12-18T04:26:12;4.60;;;3.47;;
10715;SDS011;5409;42.620;23.316;2022-12-18T04:28:39;6.43;;;4.35;;
10715;SDS011;5409;42.620;23.316;2022-12-18T04:31:06;5.97;;;3.67;;
10715;SDS011;5409;42.620;23.316;2022-12-18T04:33:33;4.53;;;3.70;;
10715;SDS011;5409;42.620;23.316;2022-12-18T04:36:01;5.22;;;3.72;;
10715;SDS011;5409;42.620;23.316;2022-12-18T04:38:28;4.65;;;3.50;;
10715;SDS011;5409;42.620;23.316;2022-12-18T04:40:55;5.10;;;3.38;;
10715;SDS011;5409;42.620;23.316;2022-12-18T04:43:21;5.80;;;4.60;;
10715;SDS011;5409;42.620;23.316;2022-12-18T04:45:48;6.30;;;4.32;;
10715;SDS011;5409;42.620;23.316;2022-12-18T04:48:15;4.70;;;3.63;;
10715;SDS011;5409;42.620;23.316;2022-12-18T04:50:42;4.10;;;3.70;;
10715;SDS011;5409;42.620;23.316;2022-12-18T04:53:10;6.35;;;4.40;;
10715;SDS011;5409;42.620;23.316;2022-12-18T04:55:37;7.70;;;4.55;;
10715;SDS011;5409;42.620;23.316;2022-12-18T04:58:03;4.50;;;3.40;;
10715;SDS011;5409;42.620;23.316;2022-12-18T05:00:30;7.53;;;3.85;;
10715;SDS011;5409;42.620;23.316;2022-12-18T05:02:57;4.97;;;3.63;;
10715;SDS011;5409;42.620;23.316;2022-12-18T05:05:23;5.82;;;3.72;;
10715;SDS011;5409;42.620;23.316;2022-12-18T05:07:50;6.03;;;4.75;;
10715;SDS011;5409;42.620;23.316;2022-12-18T05:10:18;8.13;;;4.78;;
10715;SDS011;5409;42.620;23.316;2022-12-18T05:12:45;5.07;;;4.00;;
10715;SDS011;5409;42.620;23.316;2022-12-18T05:15:27;6.40;;;4.25;;
10715;SDS011;5409;42.620;23.316;2022-12-18T05:17:55;5.22;;;3.53;;
10715;SDS011;5409;42.620;23.316;2022-12-18T05:20:22;8.77;;;4.90;;
10715;SDS011;5409;42.620;23.316;2022-12-18T05:22:49;7.43;;;4.75;;
10715;SDS011;5409;42.620;23.316;2022-12-18T05:25:17;6.28;;;4.90;;
10715;SDS011;5409;42.620;23.316;2022-12-18T05:27:46;4.78;;;3.97;;
10715;SDS011;5409;42.620;23.316;2022-12-18T05:30:13;4.78;;;3.78;;
10715;SDS011;5409;42.620;23.316;2022-12-18T05:32:41;5.35;;;4.30;;
10715;SDS011;5409;42.620;23.316;2022-12-18T05:35:08;7.35;;;4.30;;
10715;SDS011;5409;42.620;23.316;2022-12-18T05:37:36;6.32;;;4.15;;
10715;SDS011;5409;42.620;23.316;2022-12-18T05:40:03;7.13;;;4.20;;
10715;SDS011;5409;42.620;23.316;2022-12-18T05:42:32;5.75;;;3.42;;
10715;SDS011;5409;42.620;23.316;2022-12-18T05:44:59;5.78;;;4.13;;
10715;SDS011;5409;42.620;23.316;2022-12-18T05:47:26;4.82;;;3.67;;
10715;SDS011;5409;42.620;23.316;2022-12-18T05:49:53;5.53;;;4.03;;
10715;SDS011;5409;42.620;23.316;2022-12-18T05:52:20;5.45;;;3.65;;
10715;SDS011;5409;42.620;23.316;2022-12-18T05:54:47;8.93;;;3.92;;
10715;SDS011;5409;42.620;23.316;2022-12-18T05:57:14;6.68;;;4.30;;
10715;SDS011;5409;42.620;23.316;2022-12-18T05:59:42;6.53;;;4.32;;
10715;SDS011;5409;42.620;23.316;2022-12-18T06:02:08;6.70;;;5.78;;
10715;SDS011;5409;42.620;23.316;2022-12-18T06:04:35;9.68;;;6.85;;
10715;SDS011;5409;42.620;23.316;2022-12-18T06:07:02;10.18;;;6.30;;
10715;SDS011;5409;42.620;23.316;2022-12-18T06:09:29;10.40;;;6.18;;
10715;SDS011;5409;42.620;23.316;2022-12-18T06:11:55;10.20;;;7.03;;
10715;SDS011;5409;42.620;23.316;2022-12-18T06:14:22;8.35;;;6.15;;
10715;SDS011;5409;42.620;23.316;2022-12-18T06:16:51;9.50;;;6.07;;
10715;SDS011;5409;42.620;23.316;2022-12-18T06:19:18;5.85;;;4.68;;
10715;SDS011;5409;42.620;23.316;2022-12-18T06:21:44;8.00;;;6.28;;
10715;SDS011;5409;42.620;23.316;2022-12-18T06:24:11;7.82;;;5.63;;
10715;SDS011;5409;42.620;23.316;2022-12-18T06:26:38;7.40;;;4.90;;
10715;SDS011;5409;42.620;23.316;2022-12-18T06:29:05;9.35;;;4.68;;
10715;SDS011;5409;42.620;23.316;2022-12-18T06:31:32;6.93;;;5.53;;
10715;SDS011;5409;42.620;23.316;2022-12-18T06:34:01;7.55;;;5.78;;
10715;SDS011;5409;42.620;23.316;2022-12-18T06:36:28;7.70;;;5.78;;
10715;SDS011;5409;42.620;23.316;2022-12-18T06:38:55;6.32;;;4.10;;
10715;SDS011;5409;42.620;23.316;2022-12-18T06:41:23;6.60;;;4.13;;
10715;SDS011;5409;42.620;23.316;2022-12-18T06:43:50;7.95;;;4.53;;
10715;SDS011;5409;42.620;23.316;2022-12-18T06:46:17;5.45;;;3.67;;
10715;SDS011;5409;42.620;23.316;2022-12-18T06:48:46;10.18;;;4.80;;
10715;SDS011;5409;42.620;23.316;2022-12-18T06:51:16;8.77;;;5.10;;
10715;SDS011;5409;42.620;23.316;2022-12-18T06:53:44;10.75;;;5.32;;
10715;SDS011;5409;42.620;23.316;2022-12-18T06:56:10;4.65;;;3.53;;
10715;SDS011;5409;42.620;23.316;2022-12-18T06:58:37;5.93;;;4.28;;
10715;SDS011;5409;42.620;23.316;2022-12-18T07:01:05;6.70;;;4.63;;
10715;SDS011;5409;42.620;23.316;2022-12-18T07:03:33;6.75;;;4.30;;
10715;SDS011;5409;42.620;23.316;2022-12-18T07:05:59;7.28;;;4.72;;
10715;SDS011;5409;42.620;23.316;2022-12-18T07:08:28;5.00;;;3.63;;
10715;SDS011;5409;42.620;23.316;2022-12-18T07:10:55;6.95;;;4.70;;
10715;SDS011;5409;42.620;23.316;2022-12-18T07:13:21;5.93;;;4.55;;
10715;SDS011;5409;42.620;23.316;2022-12-18T07:15:49;7.47;;;4.90;;
10715;SDS011;5409;42.620;23.316;2022-12-18T07:18:15;8.10;;;4.65;;
10715;SDS011;5409;42.620;23.316;2022-12-18T07:20:42;6.93;;;4.75;;
10715;SDS011;5409;42.620;23.316;2022-12-18T07:23:09;7.50;;;4.57;;
10715;SDS011;5409;42.620;23.316;2022-12-18T07:25:37;5.63;;;4.10;;
10715;SDS011;5409;42.620;23.316;2022-12-18T07:28:04;5.30;;;4.13;;
10715;SDS011;5409;42.620;23.316;2022-12-18T07:30:31;6.60;;;4.78;;
10715;SDS011;5409;42.620;23.316;2022-12-18T07:32:58;5.32;;;4.35;;
10715;SDS011;5409;42.620;23.316;2022-12-18T07:35:25;7.38;;;4.75;;
10715;SDS011;5409;42.620;23.316;2022-12-18T07:37:51;7.03;;;4.50;;
10715;SDS011;5409;42.620;23.316;2022-12-18T07:40:18;9.02;;;4.97;;
10715;SDS011;5409;42.620;23.316;2022-12-18T07:42:46;7.40;;;4.65;;
10715;SDS011;5409;42.620;23.316;2022-12-18T07:45:13;9.02;;;5.20;;
10715;SDS011;5409;42.620;23.316;2022-12-18T07:47:40;7.85;;;4.50;;
10715;SDS011;5409;42.620;23.316;2022-12-18T07:50:07;7.32;;;5.20;;
10715;SDS011;5409;42.620;23.316;2022-12-18T07:52:34;7.13;;;4.53;;
10715;SDS011;5409;42.620;23.316;2022-12-18T07:55:01;6.90;;;4.40;;
10715;SDS011;5409;42.620;23.316;2022-12-18T07:57:28;8.15;;;5.57;;
10715;SDS011;5409;42.620;23.316;2022-12-18T07:59:56;7.18;;;5.03;;
10715;SDS011;5409;42.620;23.316;2022-12-18T08:02:22;6.30;;;4.03;;
10715;SDS011;5409;42.620;23.316;2022-12-18T08:04:49;10.98;;;5.53;;
10715;SDS011;5409;42.620;23.316;2022-12-18T08:07:16;9.50;;;6.68;;
10715;SDS011;5409;42.620;23.316;2022-12-18T08:09:43;8.93;;;4.90;;
10715;SDS011;5409;42.620;23.316;2022-12-18T08:12:09;6.85;;;4.78;;
10715;SDS011;5409;42.620;23.316;2022-12-18T08:14:36;8.80;;;6.78;;
10715;SDS011;5409;42.620;23.316;2022-12-18T08:17:04;8.68;;;5.53;;
10715;SDS011;5409;42.620;23.316;2022-12-18T08:19:31;9.02;;;5.80;;
10715;SDS011;5409;42.620;23.316;2022-12-18T08:21:58;8.93;;;5.70;;
10715;SDS011;5409;42.620;23.316;2022-12-18T08:24:25;10.30;;;5.47;;
10715;SDS011;5409;42.620;23.316;2022-12-18T08:26:51;8.80;;;5.55;;
10715;SDS011;5409;42.620;23.316;2022-12-18T08:29:18;8.10;;;5.63;;
10715;SDS011;5409;42.620;23.316;2022-12-18T08:31:45;13.77;;;6.53;;
10715;SDS011;5409;42.620;23.316;2022-12-18T08:34:13;14.80;;;7.97;;
10715;SDS011;5409;42.620;23.316;2022-12-18T08:36:40;11.63;;;6.63;;
10715;SDS011;5409;42.620;23.316;2022-12-18T08:39:07;12.30;;;6.65;;
10715;SDS011;5409;42.620;23.316;2022-12-18T08:41:34;12.65;;;6.95;;
10715;SDS011;5409;42.620;23.316;2022-12-18T08:44:00;11.50;;;7.22;;
10715;SDS011;5409;42.620;23.316;2022-12-18T08:46:44;10.80;;;6.88;;
10715;SDS011;5409;42.620;23.316;2022-12-18T08:49:11;14.00;;;7.95;;
10715;SDS011;5409;42.620;23.316;2022-12-18T08:51:39;13.57;;;8.57;;
10715;SDS011;5409;42.620;23.316;2022-12-18T08:54:06;15.75;;;8.15;;
10715;SDS011;5409;42.620;23.316;2022-12-18T08:56:33;11.10;;;6.65;;
10715;SDS011;5409;42.620;23.316;2022-12-18T08:59:00;9.52;;;6.43;;
10715;SDS011;5409;42.620;23.316;2022-12-18T09:01:27;9.18;;;6.78;;
10715;SDS011;5409;42.620;23.316;2022-12-18T09:03:54;17.13;;;9.68;;
10715;SDS011;5409;42.620;23.316;2022-12-18T09:06:21;15.70;;;9.15;;
10715;SDS011;5409;42.620;23.316;2022-12-18T09:08:50;13.20;;;8.35;;
10715;SDS011;5409;42.620;23.316;2022-12-18T09:11:18;12.95;;;8.10;;
10715;SDS011;5409;42.620;23.316;2022-12-18T09:13:47;16.30;;;10.20;;
10715;SDS011;5409;42.620;23.316;2022-12-18T09:16:14;15.65;;;9.95;;
10715;SDS011;5409;42.620;23.316;2022-12-18T09:18:42;18.42;;;10.77;;
10715;SDS011;5409;42.620;23.316;2022-12-18T09:21:09;15.18;;;8.77;;
10715;SDS011;5409;42.620;23.316;2022-12-18T09:23:37;20.08;;;10.27;;
10715;SDS011;5409;42.620;23.316;2022-12-18T09:26:05;22.30;;;12.60;;
10715;SDS011;5409;42.620;23.316;2022-12-18T09:28:32;23.63;;;14.20;;
10715;SDS011;5409;42.620;23.316;2022-12-18T09:31:03;19.80;;;11.82;;
10715;SDS011;5409;42.620;23.316;2022-12-18T09:33:30;21.42;;;12.38;;
10715;SDS011;5409;42.620;23.316;2022-12-18T09:35:57;24.38;;;13.90;;
10715;SDS011;5409;42.620;23.316;2022-12-18T09:38:27;20.73;;;11.57;;
10715;SDS011;5409;42.620;23.316;2022-12-18T09:40:54;20.88;;;11.50;;
10715;SDS011;5409;42.620;23.316;2022-12-18T09:43:28;24.92;;;13.25;;
10715;SDS011;5409;42.620;23.316;2022-12-18T09:46:03;25.20;;;13.63;;
10715;SDS011;5409;42.620;23.316;2022-12-18T09:48:34;20.00;;;11.57;;
10715;SDS011;5409;42.620;23.316;2022-12-18T09:51:05;25.38;;;12.95;;
10715;SDS011;5409;42.620;23.316;2022-12-18T09:53:39;26.55;;;13.85;;
10715;SDS011;5409;42.620;23.316;2022-12-18T09:56:11;24.52;;;14.10;;
10715;SDS011;5409;42.620;23.316;2022-12-18T09:58:45;24.33;;;13.65;;
10715;SDS011;5409;42.620;23.316;2022-12-18T10:01:16;20.92;;;12.32;;
10715;SDS011;5409;42.620;23.316;2022-12-18T10:03:46;21.00;;;12.85;;
10715;SDS011;5409;42.620;23.316;2022-12-18T10:06:15;23.02;;;11.75;;
10715;SDS011;5409;42.620;23.316;2022-12-18T10:08:49;18.92;;;10.82;;
10715;SDS011;5409;42.620;23.316;2022-12-18T10:11:24;20.30;;;10.98;;
10715;SDS011;5409;42.620;23.316;2022-12-18T10:14:08;20.13;;;12.05;;
10715;SDS011;5409;42.620;23.316;2022-12-18T10:16:43;23.95;;;11.68;;
10715;SDS011;5409;42.620;23.316;2022-12-18T10:19:24;17.27;;;10.50;;
10715;SDS011;5409;42.620;23.316;2022-12-18T10:22:00;18.13;;;10.88;;
10715;SDS011;5409;42.620;23.316;2022-12-18T10:24:38;17.75;;;11.20;;
10715;SDS011;5409;42.620;23.316;2022-12-18T10:27:12;18.95;;;11.65;;
10715;SDS011;5409;42.620;23.316;2022-12-18T10:29:42;20.90;;;12.60;;
10715;SDS011;5409;42.620;23.316;2022-12-18T10:32:13;24.73;;;14.13;;
10715;SDS011;5409;42.620;23.316;2022-12-18T10:34:43;21.55;;;11.07;;
10715;SDS011;5409;42.620;23.316;2022-12-18T10:37:12;23.13;;;13.05;;
10715;SDS011;5409;42.620;23.316;2022-12-18T10:39:43;21.13;;;12.30;;
10715;SDS011;5409;42.620;23.316;2022-12-18T10:42:11;20.85;;;12.85;;
10715;SDS011;5409;42.620;23.316;2022-12-18T10:44:44;24.00;;;12.07;;
10715;SDS011;5409;42.620;23.316;2022-12-18T10:47:12;23.17;;;12.48;;
10715;SDS011;5409;42.620;23.316;2022-12-18T10:49:42;21.23;;;11.52;;
10715;SDS011;5409;42.620;23.316;2022-12-18T10:52:15;23.60;;;13.30;;
10715;SDS011;5409;42.620;23.316;2022-12-18T10:54:48;22.92;;;12.00;;
10715;SDS011;5409;42.620;23.316;2022-12-18T10:57:19;20.15;;;12.13;;
10715;SDS011;5409;42.620;23.316;2022-12-18T10:59:59;20.80;;;11.60;;
10715;SDS011;5409;42.620;23.316;2022-12-18T11:02:46;19.25;;;10.95;;
10715;SDS011;5409;42.620;23.316;2022-12-18T11:05:22;18.98;;;10.77;;
10715;SDS011;5409;42.620;23.316;2022-12-18T11:07:51;24.48;;;16.05;;
10715;SDS011;5409;42.620;23.316;2022-12-18T11:10:20;20.15;;;11.70;;
10715;SDS011;5409;42.620;23.316;2022-12-18T11:12:48;16.13;;;10.45;;
10715;SDS011;5409;42.620;23.316;2022-12-18T11:15:16;18.30;;;10.02;;
10715;SDS011;5409;42.620;23.316;2022-12-18T11:17:46;17.48;;;10.07;;
10715;SDS011;5409;42.620;23.316;2022-12-18T11:20:23;14.25;;;9.20;;
10715;SDS011;5409;42.620;23.316;2022-12-18T11:22:58;12.40;;;7.70;;
10715;SDS011;5409;42.620;23.316;2022-12-18T11:25:26;8.50;;;5.13;;
10715;SDS011;5409;42.620;23.316;2022-12-18T11:27:54;12.30;;;6.95;;
10715;SDS011;5409;42.620;23.316;2022-12-18T11:30:25;13.55;;;6.95;;
10715;SDS011;5409;42.620;23.316;2022-12-18T11:32:59;10.70;;;6.80;;
10715;SDS011;5409;42.620;23.316;2022-12-18T11:35:40;12.52;;;6.75;;
10715;SDS011;5409;42.620;23.316;2022-12-18T11:38:17;13.82;;;6.93;;
10715;SDS011;5409;42.620;23.316;2022-12-18T11:40:50;15.32;;;9.50;;
10715;SDS011;5409;42.620;23.316;2022-12-18T11:43:22;11.65;;;7.35;;
10715;SDS011;5409;42.620;23.316;2022-12-18T11:45:56;16.35;;;6.85;;
10715;SDS011;5409;42.620;23.316;2022-12-18T11:48:28;11.23;;;7.03;;
10715;SDS011;5409;42.620;23.316;2022-12-18T11:50:59;11.35;;;5.90;;
10715;SDS011;5409;42.620;23.316;2022-12-18T11:53:31;9.77;;;6.07;;
10715;SDS011;5409;42.620;23.316;2022-12-18T11:56:00;11.45;;;6.00;;
10715;SDS011;5409;42.620;23.316;2022-12-18T11:58:42;12.13;;;6.32;;
10715;SDS011;5409;42.620;23.316;2022-12-18T12:01:15;10.13;;;5.72;;
10715;SDS011;5409;42.620;23.316;2022-12-18T12:03:58;10.18;;;5.45;;
10715;SDS011;5409;42.620;23.316;2022-12-18T12:06:33;11.52;;;5.97;;
10715;SDS011;5409;42.620;23.316;2022-12-18T12:09:10;9.88;;;6.30;;
10715;SDS011;5409;42.620;23.316;2022-12-18T12:11:49;9.82;;;6.90;;
10715;SDS011;5409;42.620;23.316;2022-12-18T12:14:33;11.50;;;6.13;;
10715;SDS011;5409;42.620;23.316;2022-12-18T12:17:14;12.80;;;8.70;;
10715;SDS011;5409;42.620;23.316;2022-12-18T12:19:49;10.80;;;6.07;;
10715;SDS011;5409;42.620;23.316;2022-12-18T12:22:24;10.68;;;6.72;;
10715;SDS011;5409;42.620;23.316;2022-12-18T12:25:02;14.52;;;6.70;;
10715;SDS011;5409;42.620;23.316;2022-12-18T12:27:43;10.30;;;6.38;;
10715;SDS011;5409;42.620;23.316;2022-12-18T12:30:19;10.90;;;7.07;;
10715;SDS011;5409;42.620;23.316;2022-12-18T12:32:53;8.95;;;6.28;;
10715;SDS011;5409;42.620;23.316;2022-12-18T12:35:32;12.00;;;6.55;;
10715;SDS011;5409;42.620;23.316;2022-12-18T12:38:09;10.82;;;6.95;;
10715;SDS011;5409;42.620;23.316;2022-12-18T12:40:41;16.80;;;9.15;;
10715;SDS011;5409;42.620;23.316;2022-12-18T12:45:58;14.57;;;7.85;;
10715;SDS011;5409;42.620;23.316;2022-12-18T12:48:38;15.32;;;8.85;;
10715;SDS011;5409;42.620;23.316;2022-12-18T12:51:11;17.48;;;9.48;;
10715;SDS011;5409;42.620;23.316;2022-12-18T12:53:42;16.92;;;9.50;;
10715;SDS011;5409;42.620;23.316;2022-12-18T12:56:10;14.25;;;8.63;;
10715;SDS011;5409;42.620;23.316;2022-12-18T12:58:43;14.63;;;8.25;;
10715;SDS011;5409;42.620;23.316;2022-12-18T13:01:23;15.80;;;8.57;;
10715;SDS011;5409;42.620;23.316;2022-12-18T13:03:58;16.15;;;8.18;;
10715;SDS011;5409;42.620;23.316;2022-12-18T13:06:37;18.77;;;11.57;;
10715;SDS011;5409;42.620;23.316;2022-12-18T13:09:10;18.38;;;9.40;;
10715;SDS011;5409;42.620;23.316;2022-12-18T13:11:38;15.10;;;9.68;;
10715;SDS011;5409;42.620;23.316;2022-12-18T13:14:24;15.18;;;8.32;;
10715;SDS011;5409;42.620;23.316;2022-12-18T13:17:14;18.10;;;8.52;;
10715;SDS011;5409;42.620;23.316;2022-12-18T13:20:04;14.73;;;8.48;;
10715;SDS011;5409;42.620;23.316;2022-12-18T13:22:42;17.70;;;8.13;;
10715;SDS011;5409;42.620;23.316;2022-12-18T13:28:09;17.83;;;8.10;;
10715;SDS011;5409;42.620;23.316;2022-12-18T13:30:45;14.23;;;8.57;;
10715;SDS011;5409;42.620;23.316;2022-12-18T13:36:12;17.60;;;10.25;;
10715;SDS011;5409;42.620;23.316;2022-12-18T13:38:41;16.75;;;9.82;;
10715;SDS011;5409;42.620;23.316;2022-12-18T13:41:22;17.60;;;10.13;;
10715;SDS011;5409;42.620;23.316;2022-12-18T13:43:51;15.43;;;9.32;;
10715;SDS011;5409;42.620;23.316;2022-12-18T13:46:20;15.02;;;9.18;;
10715;SDS011;5409;42.620;23.316;2022-12-18T13:48:50;17.67;;;9.75;;
10715;SDS011;5409;42.620;23.316;2022-12-18T13:51:21;19.25;;;10.13;;
10715;SDS011;5409;42.620;23.316;2022-12-18T13:53:49;17.73;;;9.88;;
10715;SDS011;5409;42.620;23.316;2022-12-18T13:56:20;19.84;;;10.32;;
10715;SDS011;5409;42.620;23.316;2022-12-18T13:59:03;19.67;;;10.75;;
10715;SDS011;5409;42.620;23.316;2022-12-18T14:01:41;19.52;;;9.60;;
10715;SDS011;5409;42.620;23.316;2022-12-18T14:04:09;19.45;;;9.60;;
10715;SDS011;5409;42.620;23.316;2022-12-18T14:06:39;17.92;;;9.75;;
10715;SDS011;5409;42.620;23.316;2022-12-18T14:09:10;17.55;;;9.55;;
10715;SDS011;5409;42.620;23.316;2022-12-18T14:11:39;16.73;;;10.60;;
10715;SDS011;5409;42.620;23.316;2022-12-18T14:14:13;21.80;;;10.70;;
10715;SDS011;5409;42.620;23.316;2022-12-18T14:16:40;18.42;;;10.00;;
10715;SDS011;5409;42.620;23.316;2022-12-18T14:19:08;20.20;;;11.23;;
10715;SDS011;5409;42.620;23.316;2022-12-18T14:21:41;18.30;;;10.82;;
10715;SDS011;5409;42.620;23.316;2022-12-18T14:24:13;17.98;;;10.55;;
10715;SDS011;5409;42.620;23.316;2022-12-18T14:26:41;21.17;;;12.07;;
10715;SDS011;5409;42.620;23.316;2022-12-18T14:29:19;17.08;;;10.57;;
10715;SDS011;5409;42.620;23.316;2022-12-18T14:32:04;17.67;;;10.50;;
10715;SDS011;5409;42.620;23.316;2022-12-18T14:34:37;16.85;;;9.40;;
10715;SDS011;5409;42.620;23.316;2022-12-18T14:37:05;21.33;;;12.27;;
10715;SDS011;5409;42.620;23.316;2022-12-18T14:39:32;19.75;;;9.88;;
10715;SDS011;5409;42.620;23.316;2022-12-18T14:41:59;19.17;;;10.35;;
10715;SDS011;5409;42.620;23.316;2022-12-18T14:44:25;18.67;;;11.13;;
10715;SDS011;5409;42.620;23.316;2022-12-18T14:46:52;18.52;;;11.27;;
10715;SDS011;5409;42.620;23.316;2022-12-18T14:49:22;19.05;;;11.25;;
10715;SDS011;5409;42.620;23.316;2022-12-18T14:51:52;21.25;;;11.02;;
10715;SDS011;5409;42.620;23.316;2022-12-18T14:54:21;17.75;;;10.82;;
10715;SDS011;5409;42.620;23.316;2022-12-18T14:56:50;19.60;;;11.10;;
10715;SDS011;5409;42.620;23.316;2022-12-18T14:59:22;16.73;;;10.48;;
10715;SDS011;5409;42.620;23.316;2022-12-18T15:01:54;18.48;;;10.10;;
10715;SDS011;5409;42.620;23.316;2022-12-18T15:04:25;19.55;;;10.68;;
10715;SDS011;5409;42.620;23.316;2022-12-18T15:07:04;24.58;;;13.20;;